Portada
METAR-TAF:

Aeropuertos :

Humberside, Inglaterra

latitud: 53-35N, longitud: 000-21W, altitud: 31 m

Observación

El informe se hizo hace 31 minutos, a las 21:50 UTC
Viento 2 kt con dirección variable
Temperatura 0°C
Humedad 100%
Presión 996 hPa
Visibilidad: 5000 m
neblina

METAR: EGNJ 122150Z AUTO VRB02KT 5000 BR SCT007/// SCT010/// BKN039/// 00/M00 Q0996

Hora: 22:21 (22:21 UTC)

Pronóstico

El informe se hizo hace 2 horas y 24 minutos, a las 19:57 UTC
Pronóstico válido del 12 a las 21 UTC al 13 a las 06 UTC
Viento 6 kt del este
Visibilidad 10 km o más
Nubes dispersas a una altura de 3000 ft
Probabilidad 30% :
Temporalmente
del 12 a las 21 UTC al 13 a las 06 UTC
Visibilidad: 7000 m
Cielo nuboso a una altura de 1200 ft

TAF: EGNJ 121957Z 1221/1306 08006KT 9999 SCT030 PROB30 TEMPO 1221/1306 7000 BKN012

METAR-TAF

Observaciones y pronósticos meteorológicos de más de 4000 aeropuertos (mensajes METAR y TAF).

Los puntos amarillos y rojos representan las estaciones disponibles.

Ponga el ratón en el punto deseado para ver el nombre de la estación.

Haga clic para ver las observaciones y los pronósticos meteorológicos.

Para cambiar el mapa : haga clic en los botones verdes con una cruz de color negro para hacer un zoom, en el botón verde con un guión para alejar o en las flechas verdes para mapas adyacentes.


METAR-TAF: